createdAt,value
2019-02-23T00:03:20.314Z,9.13
2019-02-23T00:06:00.417Z,8.70
2019-02-23T00:08:40.659Z,8.50
2019-02-23T00:11:19.995Z,8.97
2019-02-23T00:13:59.886Z,9.67
2019-02-23T00:16:40.066Z,8.57
2019-02-23T00:19:24.861Z,9.73
2019-02-23T00:22:01.933Z,9.20
2019-02-23T00:24:41.919Z,8.87
2019-02-23T00:27:21.237Z,8.23
2019-02-23T00:32:59.875Z,7.47
2019-02-23T00:35:39.838Z,9.00
2019-02-23T00:38:19.872Z,8.43
2019-02-23T00:40:59.125Z,9.00
2019-02-23T00:43:38.357Z,8.57
2019-02-23T00:46:18.394Z,8.07
2019-02-23T00:48:59.177Z,6.73
2019-02-23T00:51:38.433Z,7.70
2019-02-23T00:54:18.442Z,8.20
2019-02-23T00:56:57.683Z,8.30
2019-02-23T00:59:37.519Z,8.07
2019-02-23T01:02:17.667Z,8.40
2019-02-23T01:04:56.844Z,8.17
2019-02-23T01:07:36.837Z,8.47
2019-02-23T01:10:19.376Z,8.57
2019-02-23T01:12:58.933Z,8.70
2019-02-23T01:15:39.040Z,9.13
2019-02-23T01:18:19.136Z,8.70
2019-02-23T01:20:59.262Z,8.80
2019-02-23T01:23:39.313Z,8.77
2019-02-23T01:26:19.178Z,8.70
2019-02-23T01:28:59.122Z,9.17
2019-02-23T01:31:39.175Z,8.70
2019-02-23T01:34:19.299Z,9.13
2019-02-23T01:36:59.186Z,9.27
2019-02-23T01:39:38.294Z,9.50
2019-02-23T01:42:17.498Z,9.23
2019-02-23T01:44:57.549Z,9.30
2019-02-23T01:47:37.602Z,9.07
2019-02-23T01:50:17.543Z,9.60
2019-02-23T01:52:56.850Z,9.13
2019-02-23T02:01:48.578Z,9.13
2019-02-23T02:04:28.686Z,8.90
2019-02-23T02:07:09.334Z,8.57
2019-02-23T02:09:48.790Z,8.67
2019-02-23T02:12:29.257Z,8.73
2019-02-23T02:15:08.894Z,9.80
2019-02-23T02:17:48.981Z,9.40
2019-02-23T02:20:28.989Z,9.17
2019-02-23T02:23:09.183Z,9.47
2019-02-23T02:25:48.390Z,9.13
2019-02-23T02:28:28.163Z,9.63
2019-02-23T02:31:07.402Z,9.70
2019-02-23T02:45:46.563Z,11.10
2019-02-23T02:51:28.564Z,10.57
2019-02-23T02:57:06.803Z,10.60
2019-02-23T02:59:46.838Z,10.23
2019-02-23T03:02:25.977Z,9.50
2019-02-23T03:05:05.177Z,10.30
2019-02-23T03:07:44.423Z,10.07
2019-02-23T03:10:24.553Z,10.33
2019-02-23T03:12:51.396Z,10.50
2019-02-23T03:15:37.818Z,10.10
2019-02-23T03:18:24.416Z,9.33
2019-02-23T03:21:10.908Z,9.10
2019-02-23T03:23:57.331Z,8.80
2019-02-23T03:26:43.884Z,8.77
2019-02-23T03:29:30.666Z,8.30
2019-02-23T03:32:17.065Z,9.17
2019-02-23T03:35:03.750Z,9.03
2019-02-23T03:37:50.146Z,9.87
2019-02-23T03:40:30.211Z,9.00
2019-02-23T03:43:09.979Z,8.93
2019-02-23T03:45:50.080Z,9.30
2019-02-23T04:00:40.813Z,9.40
2019-02-23T04:03:20.856Z,9.53
2019-02-23T04:06:00.938Z,10.10
2019-02-23T04:11:53.450Z,9.73
2019-02-23T04:14:33.078Z,9.60
2019-02-23T04:17:12.574Z,9.63
2019-02-23T04:22:50.782Z,9.10
2019-02-23T04:25:30.913Z,9.77
2019-02-23T04:37:22.619Z,9.10
2019-02-23T04:40:02.699Z,9.60
2019-02-23T04:54:53.148Z,8.60
2019-02-23T04:57:33.278Z,8.57
2019-02-23T05:00:13.438Z,8.60
2019-02-23T05:02:53.312Z,8.70
2019-02-23T05:05:33.673Z,8.67
2019-02-23T05:08:13.890Z,8.27
2019-02-23T05:10:53.851Z,8.67
2019-02-23T05:13:33.064Z,8.53
2019-02-23T05:16:13.278Z,9.43
2019-02-23T05:18:53.443Z,8.63
2019-02-23T05:21:32.620Z,8.40
2019-02-23T05:24:12.873Z,9.17
2019-02-23T05:26:53.086Z,8.53
2019-02-23T05:29:33.134Z,8.77
2019-02-23T05:32:13.163Z,9.30
2019-02-23T05:34:53.071Z,8.90
2019-02-23T05:37:32.553Z,9.03
2019-02-23T05:40:12.454Z,8.50
2019-02-23T05:43:00.625Z,8.60
2019-02-23T05:45:34.464Z,9.17
2019-02-23T05:48:18.973Z,8.87
2019-02-23T05:50:58.456Z,8.83
2019-02-23T05:53:38.709Z,9.20
2019-02-23T05:56:18.486Z,9.00
2019-02-23T05:58:58.550Z,8.63
2019-02-23T06:01:38.246Z,9.10
2019-02-23T06:04:18.412Z,8.77
2019-02-23T06:06:58.356Z,9.23
2019-02-23T06:09:38.555Z,9.43
2019-02-23T06:12:18.649Z,9.80
2019-02-23T06:14:58.701Z,9.53
2019-02-23T06:17:38.826Z,9.33
2019-02-23T06:20:19.365Z,9.10
2019-02-23T06:22:58.966Z,9.33
2019-02-23T06:34:50.590Z,9.70
2019-02-23T06:37:30.475Z,9.47
2019-02-23T06:40:10.554Z,10.70
2019-02-23T06:42:50.803Z,9.73
2019-02-23T06:48:29.070Z,11.07
2019-02-23T06:51:09.407Z,11.20
2019-02-23T06:53:48.862Z,14.73
2019-02-23T06:59:41.098Z,12.97
2019-02-23T07:02:21.998Z,11.73
2019-02-23T07:05:01.352Z,9.33
2019-02-23T07:07:41.609Z,9.27
2019-02-23T07:10:21.165Z,9.77
2019-02-23T07:13:01.166Z,8.83
2019-02-23T07:15:41.696Z,8.80
2019-02-23T07:18:21.743Z,9.20
2019-02-23T07:21:01.455Z,8.97
2019-02-23T07:23:41.560Z,8.63
2019-02-23T07:26:21.687Z,8.93
2019-02-23T07:29:01.824Z,9.33
2019-02-23T07:31:41.278Z,9.30
2019-02-23T07:34:21.458Z,9.77
2019-02-23T07:37:01.469Z,9.83
2019-02-23T07:39:28.874Z,11.30
2019-02-23T07:42:08.240Z,14.30
2019-02-23T07:44:48.198Z,13.73
2019-02-23T07:47:28.258Z,10.40
2019-02-23T07:50:08.327Z,10.87
2019-02-23T07:52:48.350Z,10.20
2019-02-23T07:55:28.485Z,10.00
2019-02-23T07:58:08.395Z,10.10
2019-02-23T08:00:47.952Z,11.90
2019-02-23T08:03:27.576Z,11.47
2019-02-23T08:06:07.583Z,10.90
2019-02-23T08:08:47.675Z,10.53
2019-02-23T08:14:28.914Z,10.23
2019-02-23T08:16:55.805Z,9.47
2019-02-23T08:19:42.210Z,9.57
2019-02-23T08:22:09.095Z,10.10
2019-02-23T08:24:35.949Z,9.70
2019-02-23T08:27:22.496Z,10.47
2019-02-23T08:30:09.618Z,10.33
2019-02-23T08:32:56.052Z,9.27
2019-02-23T08:35:42.590Z,10.17
2019-02-23T08:38:29.031Z,12.17
2019-02-23T08:41:08.268Z,10.48
2019-02-23T08:43:48.338Z,9.70
2019-02-23T08:46:28.348Z,9.70
2019-02-23T08:49:08.390Z,8.67
2019-02-23T08:51:47.649Z,8.40
2019-02-23T08:54:27.568Z,8.57
2019-02-23T08:57:07.008Z,9.07
2019-02-23T08:59:47.045Z,8.13
2019-02-23T09:02:27.165Z,9.63
2019-02-23T09:05:07.225Z,9.43
2019-02-23T09:07:49.261Z,10.70
2019-02-23T09:10:29.381Z,9.17
2019-02-23T09:13:08.673Z,9.67
2019-02-23T09:19:11.089Z,9.13
2019-02-23T09:21:51.106Z,9.50
2019-02-23T09:24:17.965Z,9.63
2019-02-23T09:27:04.690Z,9.35
2019-02-23T09:29:51.407Z,8.50
2019-02-23T09:32:38.093Z,9.28
2019-02-23T09:35:24.629Z,9.08
2019-02-23T09:38:11.061Z,9.63
2019-02-23T09:40:57.582Z,9.20
2019-02-23T09:49:24.571Z,8.68
2019-02-23T09:52:10.966Z,8.63
2019-02-23T09:54:57.494Z,8.00
2019-02-23T09:57:44.124Z,8.70
2019-02-23T10:00:30.552Z,8.13
2019-02-23T10:03:17.319Z,7.45
2019-02-23T10:06:03.928Z,7.55
2019-02-23T10:12:06.657Z,7.33
2019-02-23T10:14:53.525Z,7.03
2019-02-23T10:17:40.393Z,7.08
2019-02-23T10:20:27.122Z,7.50
2019-02-23T10:23:21.583Z,7.25
2019-02-23T10:26:02.442Z,7.50
2019-02-23T10:28:49.010Z,7.60
2019-02-23T10:31:35.426Z,8.05
2019-02-23T10:34:21.847Z,6.85
2019-02-23T10:37:08.240Z,7.40
2019-02-23T10:39:54.761Z,6.72
2019-02-23T10:42:34.576Z,7.20
2019-02-23T10:45:14.635Z,6.65
2019-02-23T10:47:54.556Z,6.97
2019-02-23T10:50:34.582Z,5.67
2019-02-23T10:53:13.849Z,6.53
2019-02-23T10:58:52.201Z,5.92
2019-02-23T11:01:32.514Z,5.97
2019-02-23T11:04:12.574Z,5.97
2019-02-23T11:06:52.605Z,6.33
2019-02-23T11:09:35.120Z,7.00
2019-02-23T11:12:15.311Z,7.20
2019-02-23T11:14:55.086Z,6.72
2019-02-23T11:17:34.408Z,7.12
2019-02-23T11:20:14.646Z,7.75
2019-02-23T11:22:54.737Z,7.28
2019-02-23T11:25:34.733Z,7.20
2019-02-23T11:28:14.834Z,7.60
2019-02-23T11:30:54.910Z,6.53
2019-02-23T11:36:14.449Z,6.58
2019-02-23T11:38:54.530Z,6.60
2019-02-23T11:41:34.897Z,6.12
2019-02-23T11:44:14.646Z,6.45
2019-02-23T11:47:01.020Z,6.15
2019-02-23T11:49:35.889Z,6.22
2019-02-23T11:52:15.949Z,5.90
2019-02-23T11:54:56.361Z,5.65
2019-02-23T11:57:36.245Z,4.78
2019-02-23T12:00:16.453Z,4.45
2019-02-23T12:02:55.805Z,5.03
2019-02-23T12:05:35.403Z,4.70
2019-02-23T12:08:15.222Z,4.60
2019-02-23T12:10:55.309Z,4.70
2019-02-23T12:13:34.556Z,3.70
2019-02-23T12:16:14.640Z,4.00
2019-02-23T12:18:54.937Z,4.13
2019-02-23T12:21:34.273Z,4.00
2019-02-23T12:24:14.275Z,4.33
2019-02-23T12:26:54.413Z,4.17
2019-02-23T12:29:34.065Z,4.05
2019-02-23T12:32:14.181Z,4.05
2019-02-23T12:34:54.217Z,3.63
2019-02-23T12:37:34.159Z,4.07
2019-02-23T12:40:14.158Z,3.67
2019-02-23T12:42:54.084Z,3.33
2019-02-23T12:45:20.844Z,3.23
2019-02-23T12:48:07.249Z,3.60
2019-02-23T12:50:53.747Z,3.30
2019-02-23T12:53:40.265Z,3.02
2019-02-23T12:56:26.654Z,3.20
2019-02-23T12:59:13.310Z,3.17
2019-02-23T13:01:59.829Z,3.47
2019-02-23T13:04:26.702Z,3.50
2019-02-23T13:06:53.561Z,3.67
2019-02-23T13:09:42.697Z,3.62
2019-02-23T13:12:29.228Z,3.87
2019-02-23T13:15:35.298Z,3.50
2019-02-23T13:18:41.473Z,3.83
2019-02-23T13:21:28.026Z,3.70
2019-02-23T13:24:34.313Z,3.60
2019-02-23T13:27:40.337Z,3.40
2019-02-23T13:30:46.370Z,3.20
2019-02-23T13:33:32.948Z,2.98
2019-02-23T13:36:38.990Z,3.37
2019-02-23T13:39:47.550Z,2.20
2019-02-23T13:42:53.625Z,2.50
2019-02-23T13:45:40.278Z,2.50
2019-02-23T13:48:46.320Z,2.12
2019-02-23T13:51:52.567Z,2.45
2019-02-23T13:54:58.855Z,2.60
2019-02-23T13:58:04.941Z,3.08
2019-02-23T14:01:11.213Z,2.80
2019-02-23T14:04:17.764Z,2.80
2019-02-23T14:07:08.038Z,2.80
2019-02-23T14:10:14.084Z,2.75
2019-02-23T14:13:20.113Z,2.60
2019-02-23T14:16:06.654Z,3.10
2019-02-23T14:19:12.742Z,2.70
2019-02-23T14:21:59.339Z,3.15
2019-02-23T14:24:49.979Z,3.02
2019-02-23T14:27:56.158Z,2.58
2019-02-23T14:31:02.249Z,2.95
2019-02-23T14:34:08.825Z,2.62
2019-02-23T14:37:15.424Z,2.65
2019-02-23T14:40:21.592Z,2.80
2019-02-23T14:43:01.662Z,2.77
2019-02-23T14:45:41.799Z,3.05
2019-02-23T14:48:22.223Z,2.55
2019-02-23T14:51:08.517Z,2.70
2019-02-23T14:54:14.661Z,2.70
2019-02-23T14:57:20.719Z,2.77
2019-02-23T15:00:26.751Z,2.60
2019-02-23T15:03:32.804Z,2.87
2019-02-23T15:06:23.055Z,2.90
2019-02-23T15:09:24.550Z,3.10
2019-02-23T15:12:30.622Z,3.20
2019-02-23T15:15:24.031Z,2.87
2019-02-23T15:18:30.096Z,2.30
2019-02-23T15:21:36.149Z,2.70
2019-02-23T15:24:42.173Z,2.50
2019-02-23T15:27:41.438Z,2.85
2019-02-23T15:30:47.497Z,2.47
2019-02-23T15:33:53.547Z,2.55
2019-02-23T15:36:43.125Z,2.52
2019-02-23T15:39:39.537Z,2.30
2019-02-23T15:42:29.485Z,2.30
2019-02-23T15:45:35.587Z,2.10
2019-02-23T15:48:42.024Z,2.00
2019-02-23T15:51:28.505Z,1.98
2019-02-23T15:54:14.909Z,2.00
2019-02-23T15:57:01.602Z,1.83
2019-02-23T15:59:48.037Z,1.83
2019-02-23T16:02:15.157Z,2.03
2019-02-23T16:05:01.702Z,1.77
2019-02-23T16:07:48.101Z,1.90
2019-02-23T16:10:34.592Z,2.00
2019-02-23T16:13:21.040Z,1.90
2019-02-23T16:15:48.258Z,2.10
2019-02-23T16:18:35.025Z,1.93
2019-02-23T16:21:21.449Z,2.10
2019-02-23T16:23:48.199Z,1.90
2019-02-23T16:26:34.886Z,1.50
2019-02-23T16:29:21.683Z,1.70
2019-02-23T16:31:48.658Z,2.57
2019-02-23T16:34:35.894Z,3.70
2019-02-23T16:37:22.304Z,3.10
2019-02-23T16:40:08.835Z,3.03
2019-02-23T16:42:35.598Z,2.90
2019-02-23T16:45:22.117Z,1.97
2019-02-23T16:48:08.885Z,1.60
2019-02-23T16:50:35.679Z,1.40
2019-02-23T16:53:22.682Z,1.60
2019-02-23T16:55:51.085Z,1.80
2019-02-23T16:58:18.594Z,1.90
2019-02-23T17:00:45.753Z,1.80
2019-02-23T17:03:32.146Z,1.73
2019-02-23T17:05:59.253Z,2.10
2019-02-23T17:08:45.748Z,1.93
2019-02-23T17:11:13.300Z,1.80
2019-02-23T17:13:59.805Z,2.20
2019-02-23T17:16:46.326Z,2.00
2019-02-23T17:19:32.827Z,1.90
2019-02-23T17:22:19.244Z,2.10
2019-02-23T17:25:05.734Z,2.10
2019-02-23T17:27:52.160Z,2.07
2019-02-23T17:30:38.564Z,1.90
2019-02-23T17:33:27.909Z,2.10
2019-02-23T17:36:13.644Z,2.00
2019-02-23T17:39:00.025Z,2.20
2019-02-23T17:41:46.821Z,2.00
2019-02-23T17:44:26.565Z,1.90
2019-02-23T17:47:06.562Z,2.10
2019-02-23T17:49:46.161Z,2.03
2019-02-23T17:52:26.075Z,2.53
2019-02-23T17:55:06.245Z,2.80
2019-02-23T17:57:46.237Z,5.17
2019-02-23T18:00:25.805Z,5.33
2019-02-23T18:06:17.734Z,5.90
2019-02-23T18:08:58.096Z,6.70
2019-02-23T18:11:37.766Z,10.53
2019-02-23T18:14:17.727Z,7.47
2019-02-23T18:16:58.018Z,5.90
2019-02-23T18:19:38.150Z,5.07
2019-02-23T18:22:18.592Z,5.33
2019-02-23T18:24:58.324Z,7.30
2019-02-23T18:27:38.525Z,15.30
2019-02-23T18:30:17.885Z,18.67
2019-02-23T18:32:58.353Z,12.97
2019-02-23T18:35:38.154Z,7.80
2019-02-23T18:38:19.403Z,3.10
2019-02-23T18:40:59.204Z,2.90
2019-02-23T18:43:39.565Z,2.70
2019-02-23T18:46:19.381Z,3.30
2019-02-23T18:48:59.357Z,3.90
2019-02-23T18:51:38.755Z,2.67
2019-02-23T18:54:17.913Z,2.67
2019-02-23T18:56:58.073Z,4.00
2019-02-23T18:59:38.136Z,2.50
2019-02-23T19:02:18.576Z,2.60
2019-02-23T19:04:45.369Z,2.70
2019-02-23T19:07:31.773Z,2.60
2019-02-23T19:10:18.197Z,3.10
2019-02-23T19:13:04.921Z,3.43
2019-02-23T19:15:32.115Z,3.07
2019-02-23T19:18:19.017Z,3.07
2019-02-23T19:21:05.602Z,3.23
2019-02-23T19:23:52.225Z,3.00
2019-02-23T19:26:38.857Z,3.13
2019-02-23T19:29:25.410Z,3.40
2019-02-23T19:32:12.329Z,3.27
2019-02-23T19:34:39.157Z,3.97
2019-02-23T19:37:25.594Z,3.30
2019-02-23T19:40:12.421Z,2.73
2019-02-23T19:42:51.906Z,3.47
2019-02-23T19:45:32.001Z,3.17
2019-02-23T19:48:11.974Z,4.00
2019-02-23T19:50:52.214Z,4.43
2019-02-23T19:53:32.339Z,3.47
2019-02-23T19:56:12.145Z,3.63
2019-02-23T19:58:52.367Z,4.20
2019-02-23T20:01:32.456Z,3.53
2019-02-23T20:04:12.829Z,4.70
2019-02-23T20:06:52.539Z,5.60
2019-02-23T20:09:32.998Z,4.50
2019-02-23T20:12:12.777Z,3.90
2019-02-23T20:14:53.083Z,3.90
2019-02-23T20:17:33.135Z,3.90
2019-02-23T20:20:13.478Z,4.27
2019-02-23T20:22:53.458Z,3.67
2019-02-23T20:25:33.804Z,3.93
2019-02-23T20:28:13.558Z,4.13
2019-02-23T20:30:53.719Z,4.30
2019-02-23T20:33:33.790Z,3.90
2019-02-23T20:36:13.574Z,4.63
2019-02-23T20:38:52.790Z,4.77
2019-02-23T20:41:32.018Z,5.13
2019-02-23T20:44:12.175Z,5.80
2019-02-23T20:46:52.281Z,5.90
2019-02-23T20:49:32.435Z,6.13
2019-02-23T20:52:12.502Z,8.03
2019-02-23T20:54:52.773Z,5.00
2019-02-23T20:57:33.063Z,4.57
2019-02-23T21:00:12.975Z,4.70
2019-02-23T21:02:52.996Z,6.17
2019-02-23T21:05:33.099Z,4.83
2019-02-23T21:08:13.263Z,4.10
2019-02-23T21:10:53.346Z,4.40
2019-02-23T21:13:32.569Z,4.83
2019-02-23T21:16:11.841Z,4.80
2019-02-23T21:18:52.349Z,4.93
2019-02-23T21:21:32.288Z,5.07
2019-02-23T21:24:12.530Z,6.13
2019-02-23T21:26:52.553Z,6.40
2019-02-23T21:29:32.559Z,6.10
2019-02-23T21:32:12.506Z,6.40
2019-02-23T21:34:53.143Z,6.03
2019-02-23T21:37:32.939Z,9.63
2019-02-23T21:40:12.916Z,7.70
2019-02-23T21:42:52.788Z,8.00
2019-02-23T21:45:32.027Z,5.73
2019-02-23T21:48:12.032Z,6.13
2019-02-23T21:50:51.445Z,5.27
2019-02-23T21:53:31.659Z,4.47
2019-02-23T21:56:11.954Z,3.90
2019-02-23T21:58:51.711Z,4.00
2019-02-23T22:01:32.038Z,4.37
2019-02-23T22:04:11.871Z,9.67
2019-02-23T22:06:52.048Z,8.93
2019-02-23T22:09:32.244Z,13.67
2019-02-23T22:12:12.147Z,10.77
2019-02-23T22:14:52.107Z,9.20
2019-02-23T22:17:32.055Z,5.80
2019-02-23T22:20:11.908Z,4.70
2019-02-23T22:22:51.248Z,4.30
2019-02-23T22:25:31.633Z,4.33
2019-02-23T22:28:11.286Z,4.70
2019-02-23T22:30:51.317Z,4.70
2019-02-23T22:33:31.630Z,4.13
2019-02-23T22:36:11.688Z,4.77
2019-02-23T22:38:50.943Z,4.40
2019-02-23T22:41:30.167Z,4.50
2019-02-23T22:44:10.047Z,4.47
2019-02-23T22:46:50.348Z,4.47
2019-02-23T22:49:30.201Z,5.20
2019-02-23T22:52:10.281Z,5.00
2019-02-23T22:54:50.327Z,4.67
2019-02-23T22:57:30.586Z,5.83
2019-02-23T23:00:10.362Z,4.97
2019-02-23T23:02:49.833Z,5.00
2019-02-23T23:05:29.702Z,5.00
2019-02-23T23:08:09.854Z,5.40
2019-02-23T23:10:49.965Z,5.60
2019-02-23T23:13:29.894Z,5.33
2019-02-23T23:16:10.088Z,5.27
2019-02-23T23:18:50.501Z,5.30
2019-02-23T23:21:30.497Z,5.27
2019-02-23T23:24:10.293Z,4.67
2019-02-23T23:26:49.525Z,5.60
2019-02-23T23:29:29.792Z,5.87
2019-02-23T23:32:09.884Z,5.80
2019-02-23T23:34:49.604Z,5.90
2019-02-23T23:37:28.813Z,5.97
2019-02-23T23:40:08.768Z,4.87
2019-02-23T23:42:48.684Z,4.97
2019-02-23T23:45:27.984Z,5.10
2019-02-23T23:48:08.126Z,4.90
2019-02-23T23:50:34.900Z,4.60
2019-02-23T23:53:21.295Z,4.87
2019-02-23T23:55:48.164Z,4.63
2019-02-23T23:58:34.897Z,5.07
